createdAt,value
2022-11-25T00:01:47.953Z,88.00
2022-11-25T00:04:20.049Z,88.00
2022-11-25T00:06:47.806Z,88.10
2022-11-25T00:09:16.596Z,88.20
2022-11-25T00:11:44.771Z,88.20
2022-11-25T00:14:15.675Z,88.10
2022-11-25T00:16:47.951Z,87.80
2022-11-25T00:19:22.313Z,87.80
2022-11-25T00:21:49.927Z,87.70
2022-11-25T00:24:20.325Z,87.70
2022-11-25T00:26:49.745Z,87.80
2022-11-25T00:29:17.622Z,87.80
2022-11-25T00:31:47.780Z,88.00
2022-11-25T00:34:18.450Z,88.10
2022-11-25T00:36:45.925Z,88.10
2022-11-25T00:39:25.809Z,88.10
2022-11-25T00:42:12.207Z,88.20
2022-11-25T00:44:40.952Z,88.20
2022-11-25T00:47:18.358Z,88.20
2022-11-25T00:49:48.439Z,88.40
2022-11-25T00:52:21.609Z,88.10
2022-11-25T00:54:50.529Z,88.00
2022-11-25T00:57:22.310Z,88.10
2022-11-25T00:59:49.774Z,87.90
2022-11-25T01:02:18.198Z,87.80
2022-11-25T01:04:47.260Z,87.90
2022-11-25T01:07:15.001Z,87.70
2022-11-25T01:09:46.177Z,87.70
2022-11-25T01:12:14.391Z,87.40
2022-11-25T01:14:42.092Z,87.40
2022-11-25T01:17:09.512Z,87.40
2022-11-25T01:19:40.270Z,87.40
2022-11-25T01:22:11.295Z,87.50
2022-11-25T01:24:44.589Z,87.40
2022-11-25T01:27:12.677Z,87.50
2022-11-25T01:29:43.257Z,87.10
2022-11-25T01:32:12.658Z,87.40
2022-11-25T01:34:40.489Z,87.30
2022-11-25T01:37:08.693Z,87.20
2022-11-25T01:39:36.209Z,87.20
2022-11-25T01:42:04.669Z,87.10
2022-11-25T01:44:36.217Z,87.30
2022-11-25T01:47:23.601Z,87.30
2022-11-25T01:50:04.365Z,87.40
2022-11-25T01:52:44.520Z,87.30
2022-11-25T01:55:27.691Z,87.20
2022-11-25T01:58:00.510Z,87.30
2022-11-25T02:00:28.181Z,87.20
2022-11-25T02:02:59.694Z,87.40
2022-11-25T02:05:56.208Z,87.20
2022-11-25T02:08:26.503Z,87.10
2022-11-25T02:10:56.188Z,87.10
2022-11-25T02:13:27.123Z,87.10
2022-11-25T02:15:55.836Z,86.90
2022-11-25T02:18:24.801Z,87.00
2022-11-25T02:20:52.900Z,86.90
2022-11-25T02:23:40.026Z,86.90
2022-11-25T02:26:08.254Z,87.10
2022-11-25T02:28:38.974Z,87.10
2022-11-25T02:31:10.307Z,87.20
2022-11-25T02:33:40.491Z,87.30
2022-11-25T02:36:17.385Z,87.20
2022-11-25T02:39:01.407Z,86.90
2022-11-25T02:41:41.862Z,86.70
2022-11-25T02:44:10.199Z,87.00
2022-11-25T02:46:37.708Z,87.00
2022-11-25T02:49:09.354Z,87.10
2022-11-25T02:51:40.167Z,87.20
2022-11-25T02:54:07.797Z,87.10
2022-11-25T02:56:36.226Z,87.00
2022-11-25T02:59:04.838Z,87.10
2022-11-25T03:01:33.321Z,86.90
2022-11-25T03:04:04.292Z,86.80
2022-11-25T03:06:32.465Z,86.80
2022-11-25T03:09:02.408Z,86.90
2022-11-25T03:11:51.239Z,87.00
2022-11-25T03:14:21.885Z,87.10
2022-11-25T03:16:49.550Z,87.20
2022-11-25T03:19:20.410Z,87.20
2022-11-25T03:21:49.842Z,87.00
2022-11-25T03:24:17.390Z,87.10
2022-11-25T03:26:48.132Z,87.40
2022-11-25T03:29:15.801Z,87.50
2022-11-25T03:31:43.710Z,87.70
2022-11-25T03:34:11.745Z,87.80
2022-11-25T03:36:44.875Z,87.90
2022-11-25T03:39:15.255Z,88.20
2022-11-25T03:41:45.532Z,88.40
2022-11-25T03:44:16.194Z,88.70
2022-11-25T03:46:44.102Z,89.00
2022-11-25T03:49:12.009Z,89.10
2022-11-25T03:51:42.114Z,89.30
2022-11-25T03:54:15.537Z,89.50
2022-11-25T03:56:43.536Z,89.80
2022-11-25T03:59:11.036Z,90.10
2022-11-25T04:01:42.890Z,90.30
2022-11-25T04:04:14.812Z,90.50
2022-11-25T04:06:42.851Z,90.50
2022-11-25T04:09:14.841Z,90.80
2022-11-25T04:12:02.061Z,90.90
2022-11-25T04:14:31.160Z,90.90
2022-11-25T04:16:58.576Z,91.40
2022-11-25T04:19:26.527Z,91.70
2022-11-25T04:22:01.822Z,91.80
2022-11-25T04:24:29.794Z,91.90
2022-11-25T04:27:00.565Z,91.60
2022-11-25T04:29:35.352Z,91.80
2022-11-25T04:32:03.854Z,91.90
2022-11-25T04:34:31.451Z,92.10
2022-11-25T04:37:10.276Z,92.00
2022-11-25T04:39:45.805Z,92.00
2022-11-25T04:42:32.493Z,92.20
2022-11-25T04:45:22.418Z,92.50
2022-11-25T04:47:53.925Z,92.50
2022-11-25T04:50:30.879Z,92.40
2022-11-25T04:53:08.220Z,92.10
2022-11-25T04:55:36.583Z,92.10
2022-11-25T04:58:04.446Z,92.10
2022-11-25T05:00:32.431Z,91.80
2022-11-25T05:03:00.034Z,91.70
2022-11-25T05:05:27.613Z,91.80
2022-11-25T05:07:57.721Z,91.90
2022-11-25T05:10:28.342Z,92.20
2022-11-25T05:12:56.163Z,92.10
2022-11-25T05:15:26.562Z,92.20
2022-11-25T05:17:54.462Z,92.10
2022-11-25T05:20:27.899Z,92.30
2022-11-25T05:22:55.559Z,92.20
2022-11-25T05:25:24.982Z,92.20
2022-11-25T05:27:54.975Z,92.20
2022-11-25T05:30:29.015Z,92.30
2022-11-25T05:32:56.860Z,92.30
2022-11-25T05:35:24.593Z,92.30
2022-11-25T05:37:52.115Z,92.30
2022-11-25T05:40:22.874Z,92.80
2022-11-25T05:42:55.941Z,92.90
2022-11-25T05:45:26.073Z,92.60
2022-11-25T05:47:53.342Z,92.40
2022-11-25T05:50:32.140Z,92.40
2022-11-25T05:53:02.984Z,92.30
2022-11-25T05:55:33.803Z,92.30
2022-11-25T05:58:09.905Z,92.30
2022-11-25T06:00:40.667Z,92.50
2022-11-25T06:03:08.818Z,92.30
2022-11-25T06:06:01.266Z,92.50
2022-11-25T06:08:31.004Z,92.30
2022-11-25T06:11:07.464Z,92.30
2022-11-25T06:13:43.129Z,92.30
2022-11-25T06:16:24.088Z,92.30
2022-11-25T06:19:03.001Z,92.20
2022-11-25T06:21:34.381Z,92.40
2022-11-25T06:24:05.608Z,92.40
2022-11-25T06:26:36.440Z,92.60
2022-11-25T06:29:08.640Z,92.30
2022-11-25T06:31:35.962Z,92.30
2022-11-25T06:34:08.268Z,92.60
2022-11-25T06:36:36.360Z,92.60
2022-11-25T06:39:09.289Z,92.50
2022-11-25T06:41:36.775Z,92.50
2022-11-25T06:44:05.872Z,92.40
2022-11-25T06:46:36.040Z,92.50
2022-11-25T06:49:08.984Z,92.70
2022-11-25T06:51:52.426Z,92.60
2022-11-25T06:54:22.943Z,92.70
2022-11-25T06:56:57.741Z,92.90
2022-11-25T06:59:27.553Z,92.90
2022-11-25T07:02:01.871Z,92.70
2022-11-25T07:04:44.642Z,92.30
2022-11-25T07:07:21.742Z,92.50
2022-11-25T07:10:34.533Z,92.40
2022-11-25T07:13:13.777Z,92.40
2022-11-25T07:15:46.225Z,92.10
2022-11-25T07:18:28.252Z,92.10
2022-11-25T07:21:17.922Z,92.40
2022-11-25T07:23:55.536Z,92.40
2022-11-25T07:26:26.029Z,91.90
2022-11-25T07:29:23.439Z,91.70
2022-11-25T07:32:28.512Z,91.70
2022-11-25T07:36:16.276Z,91.80
2022-11-25T07:38:31.570Z,91.60
2022-11-25T07:41:17.324Z,91.70
2022-11-25T07:43:53.213Z,91.90
2022-11-25T07:46:48.052Z,92.00
2022-11-25T07:49:27.868Z,92.20
2022-11-25T07:52:03.090Z,92.30
2022-11-25T07:54:44.282Z,92.00
2022-11-25T07:57:40.942Z,91.90
2022-11-25T08:00:25.751Z,91.90
2022-11-25T08:07:03.209Z,92.00
2022-11-25T08:09:36.182Z,91.40
2022-11-25T08:12:24.015Z,91.20
2022-11-25T08:18:17.711Z,91.20
2022-11-25T08:21:29.839Z,91.90
2022-11-25T08:24:56.792Z,91.60
2022-11-25T08:28:14.024Z,92.60
2022-11-25T08:31:17.157Z,92.60
2022-11-25T08:34:30.721Z,91.10
2022-11-25T08:37:36.833Z,90.50
2022-11-25T08:40:10.560Z,90.20
2022-11-25T08:46:20.101Z,90.30
2022-11-25T08:50:31.407Z,90.80
2022-11-25T08:52:35.115Z,90.90
2022-11-25T08:55:33.236Z,91.10
2022-11-25T08:59:00.312Z,91.30
2022-11-25T09:01:44.729Z,91.20
2022-11-25T09:07:58.994Z,91.40
2022-11-25T09:10:49.897Z,91.50
2022-11-25T09:13:25.207Z,92.00
2022-11-25T09:16:42.361Z,91.90
2022-11-25T09:19:35.775Z,91.80
2022-11-25T09:22:07.649Z,91.70
2022-11-25T09:24:44.457Z,91.50
2022-11-25T09:27:41.677Z,91.60
2022-11-25T09:30:23.887Z,91.50
2022-11-25T09:32:53.834Z,91.60
2022-11-25T09:35:32.727Z,91.20
2022-11-25T09:38:09.245Z,91.20
2022-11-25T09:41:12.292Z,91.10
2022-11-25T09:44:03.099Z,91.10
2022-11-25T09:47:08.509Z,91.30
2022-11-25T09:50:39.670Z,91.50
2022-11-25T09:53:22.194Z,91.40
2022-11-25T09:56:27.521Z,91.00
2022-11-25T09:59:30.761Z,90.70
2022-11-25T10:02:19.501Z,90.60
2022-11-25T10:05:10.356Z,90.20
2022-11-25T10:08:00.267Z,90.30
2022-11-25T10:10:45.367Z,91.30
2022-11-25T10:21:42.541Z,89.30
2022-11-25T10:24:15.685Z,89.60
2022-11-25T10:26:55.482Z,88.80
2022-11-25T10:30:47.307Z,87.50
2022-11-25T10:35:18.435Z,88.10
2022-11-25T10:40:29.995Z,87.50
2022-11-25T10:43:09.803Z,87.40
2022-11-25T10:46:03.691Z,87.60
2022-11-25T10:49:27.676Z,87.70
2022-11-25T10:52:03.466Z,87.20
2022-11-25T10:54:54.578Z,87.80
2022-11-25T10:57:30.029Z,87.70
2022-11-25T11:00:51.049Z,87.60
2022-11-25T11:03:38.614Z,88.20
2022-11-25T11:06:41.387Z,87.20
2022-11-25T11:09:53.864Z,86.80
2022-11-25T11:12:28.235Z,87.40
2022-11-25T11:15:26.834Z,87.50
2022-11-25T11:18:55.191Z,87.20
2022-11-25T11:24:36.690Z,87.10
2022-11-25T11:27:35.580Z,86.70
2022-11-25T11:30:23.416Z,86.70
2022-11-25T11:33:25.269Z,86.90
2022-11-25T11:36:43.684Z,86.70
2022-11-25T11:39:33.155Z,86.80
2022-11-25T11:42:40.177Z,87.10
2022-11-25T11:45:59.160Z,87.20
2022-11-25T11:49:09.913Z,87.50
2022-11-25T11:51:55.297Z,87.40
2022-11-25T11:54:40.210Z,87.20
2022-11-25T11:57:36.314Z,87.20
2022-11-25T12:00:11.437Z,87.10
2022-11-25T12:03:24.748Z,86.90
2022-11-25T12:06:02.986Z,86.70
2022-11-25T12:09:35.347Z,86.70
2022-11-25T12:12:14.925Z,86.90
2022-11-25T12:14:55.835Z,86.70
2022-11-25T12:17:36.225Z,86.50
2022-11-25T12:20:23.471Z,86.30
2022-11-25T12:23:19.268Z,86.50
2022-11-25T12:25:52.238Z,86.70
2022-11-25T12:28:30.485Z,87.00
2022-11-25T12:31:12.841Z,86.90
2022-11-25T12:33:49.223Z,86.70
2022-11-25T12:36:34.347Z,86.70
2022-11-25T12:39:31.092Z,86.50
2022-11-25T12:42:32.768Z,86.80
2022-11-25T12:45:19.842Z,87.30
2022-11-25T12:47:55.121Z,87.40
2022-11-25T12:50:58.070Z,87.00
2022-11-25T12:53:48.850Z,86.90
2022-11-25T12:56:46.504Z,86.90
2022-11-25T12:59:16.925Z,86.60
2022-11-25T13:02:33.808Z,87.00
2022-11-25T13:05:42.923Z,86.70
2022-11-25T13:08:45.641Z,87.10
2022-11-25T13:12:11.677Z,86.90
2022-11-25T13:15:14.465Z,86.60
2022-11-25T13:17:45.490Z,86.50
2022-11-25T13:20:39.160Z,86.70
2022-11-25T13:23:08.468Z,87.00
2022-11-25T13:25:45.599Z,87.00
2022-11-25T13:28:33.856Z,86.90
2022-11-25T13:31:19.838Z,86.90
2022-11-25T13:37:23.920Z,86.80
2022-11-25T13:40:21.263Z,86.90
2022-11-25T13:43:26.929Z,87.00
2022-11-25T13:45:58.251Z,87.30
2022-11-25T13:48:34.342Z,87.30
2022-11-25T13:51:30.689Z,86.90
2022-11-25T13:54:06.790Z,87.20
2022-11-25T13:57:02.524Z,87.30
2022-11-25T13:59:41.999Z,87.40
2022-11-25T14:02:36.221Z,87.50
2022-11-25T14:05:26.134Z,87.60
2022-11-25T14:08:34.988Z,87.40
2022-11-25T14:11:07.573Z,87.70
2022-11-25T14:14:09.923Z,87.70
2022-11-25T14:17:07.086Z,87.70
2022-11-25T14:20:08.722Z,87.70
2022-11-25T14:22:58.000Z,87.40
2022-11-25T14:25:38.733Z,87.50
2022-11-25T14:28:25.368Z,87.40
2022-11-25T14:31:02.833Z,87.40
2022-11-25T14:33:35.613Z,87.50
2022-11-25T14:36:14.292Z,87.50
2022-11-25T14:38:50.943Z,87.60
2022-11-25T14:41:25.719Z,87.60
2022-11-25T14:44:02.292Z,87.50
2022-11-25T14:46:30.412Z,87.50
2022-11-25T14:49:07.735Z,87.10
2022-11-25T14:51:46.910Z,86.80
2022-11-25T14:54:19.418Z,86.90
2022-11-25T14:56:53.574Z,87.00
2022-11-25T14:59:21.994Z,87.00
2022-11-25T15:01:55.594Z,87.10
2022-11-25T15:04:49.940Z,87.10
2022-11-25T15:07:29.579Z,87.40
2022-11-25T15:09:59.445Z,88.00
2022-11-25T15:12:33.579Z,88.20
2022-11-25T15:15:03.968Z,88.10
2022-11-25T15:17:55.333Z,88.30
2022-11-25T15:20:30.236Z,88.70
2022-11-25T15:22:57.757Z,88.90
2022-11-25T15:25:29.753Z,88.90
2022-11-25T15:27:57.747Z,89.10
2022-11-25T15:30:36.381Z,89.20
2022-11-25T15:33:14.152Z,89.10
2022-11-25T15:35:48.393Z,89.00
2022-11-25T15:38:35.082Z,89.10
2022-11-25T15:41:18.775Z,89.40
2022-11-25T15:43:52.420Z,89.50
2022-11-25T15:46:23.124Z,89.50
2022-11-25T15:48:54.255Z,89.60
2022-11-25T15:51:25.716Z,89.50
2022-11-25T15:54:53.481Z,89.40
2022-11-25T15:57:55.051Z,89.40
2022-11-25T16:00:36.750Z,88.90
2022-11-25T16:03:47.304Z,88.70
2022-11-25T16:06:40.981Z,88.80
2022-11-25T16:09:39.789Z,88.80
2022-11-25T16:12:52.779Z,88.50
2022-11-25T16:15:43.730Z,88.20
2022-11-25T16:18:47.590Z,88.20
2022-11-25T16:21:40.975Z,88.00
2022-11-25T16:24:38.179Z,88.10
2022-11-25T16:27:32.752Z,88.00
2022-11-25T16:30:07.128Z,87.90
2022-11-25T16:32:38.312Z,88.00
2022-11-25T16:35:36.072Z,88.00
2022-11-25T16:38:06.901Z,88.20
2022-11-25T16:40:45.626Z,88.30
2022-11-25T16:43:37.900Z,88.50
2022-11-25T16:46:09.011Z,88.50
2022-11-25T16:48:37.428Z,88.30
2022-11-25T16:51:21.762Z,88.40
2022-11-25T16:53:52.686Z,88.50
2022-11-25T16:56:28.649Z,88.60
2022-11-25T16:59:00.391Z,88.70
2022-11-25T17:01:51.289Z,88.70
2022-11-25T17:04:21.171Z,88.70
2022-11-25T17:07:24.158Z,88.70
2022-11-25T17:10:06.016Z,88.70
2022-11-25T17:12:35.695Z,88.90
2022-11-25T17:15:44.703Z,88.90
2022-11-25T17:18:16.182Z,89.00
2022-11-25T17:21:05.451Z,88.80
2022-11-25T17:23:44.306Z,89.10
2022-11-25T17:26:34.234Z,89.10
2022-11-25T17:29:08.363Z,89.30
2022-11-25T17:31:39.139Z,89.10
2022-11-25T17:34:06.962Z,89.10
2022-11-25T17:36:34.902Z,89.20
2022-11-25T17:39:02.058Z,88.90
2022-11-25T17:41:33.165Z,88.80
2022-11-25T17:44:03.556Z,89.00
2022-11-25T17:46:36.840Z,88.80
2022-11-25T17:49:17.328Z,89.00
2022-11-25T17:51:45.799Z,89.00
2022-11-25T17:54:16.837Z,89.00
2022-11-25T17:56:52.100Z,89.20
2022-11-25T17:59:32.187Z,89.10
2022-11-25T18:02:00.645Z,88.90
2022-11-25T18:04:31.299Z,88.90
2022-11-25T18:07:08.097Z,88.50
2022-11-25T18:09:38.737Z,88.50
2022-11-25T18:12:10.897Z,88.40
2022-11-25T18:14:40.929Z,88.40
2022-11-25T18:17:11.521Z,88.40
2022-11-25T18:19:39.214Z,88.40
2022-11-25T18:22:13.904Z,88.00
2022-11-25T18:24:44.218Z,88.00
2022-11-25T18:27:29.597Z,87.80
2022-11-25T18:30:01.564Z,87.90
2022-11-25T18:32:31.321Z,87.70
2022-11-25T18:34:59.435Z,88.00
2022-11-25T18:37:26.790Z,87.90
2022-11-25T18:39:54.109Z,87.50
2022-11-25T18:42:26.991Z,87.60
2022-11-25T18:44:57.917Z,87.60
2022-11-25T18:47:43.523Z,87.40
2022-11-25T18:50:22.536Z,87.30
2022-11-25T18:52:53.532Z,87.50
2022-11-25T18:55:26.547Z,87.60
2022-11-25T18:57:53.868Z,87.60
2022-11-25T19:00:33.326Z,87.50
2022-11-25T19:03:13.886Z,87.70
2022-11-25T19:05:44.387Z,87.70
2022-11-25T19:08:15.342Z,87.50
2022-11-25T19:10:45.571Z,87.30
2022-11-25T19:13:17.524Z,87.50
2022-11-25T19:15:48.034Z,87.50
2022-11-25T19:18:23.169Z,87.70
2022-11-25T19:20:50.960Z,87.70
2022-11-25T19:23:23.109Z,87.70
2022-11-25T19:26:01.556Z,87.70
2022-11-25T19:28:30.312Z,87.80
2022-11-25T19:31:04.765Z,87.70
2022-11-25T19:33:53.616Z,88.10
2022-11-25T19:36:27.211Z,88.20
2022-11-25T19:38:54.650Z,88.20
2022-11-25T19:41:22.103Z,87.90
2022-11-25T19:43:52.877Z,87.70
2022-11-25T19:46:46.148Z,87.90
2022-11-25T19:49:20.347Z,87.70
2022-11-25T19:51:48.958Z,87.50
2022-11-25T19:54:44.970Z,87.70
2022-11-25T19:57:17.825Z,87.50
2022-11-25T19:59:45.637Z,87.60
2022-11-25T20:02:21.556Z,87.70
2022-11-25T20:04:55.429Z,87.80
2022-11-25T20:07:23.434Z,87.50
2022-11-25T20:09:51.725Z,87.50
2022-11-25T20:12:26.503Z,87.40
2022-11-25T20:15:00.780Z,87.40
2022-11-25T20:17:34.309Z,87.70
2022-11-25T20:20:28.092Z,87.70
2022-11-25T20:23:08.710Z,87.70
2022-11-25T20:25:45.234Z,87.70
2022-11-25T20:28:26.089Z,87.60
2022-11-25T20:30:55.809Z,87.60
2022-11-25T20:33:29.741Z,87.60
2022-11-25T20:36:07.881Z,87.80
2022-11-25T20:38:36.219Z,87.90
2022-11-25T20:41:04.394Z,88.10
2022-11-25T20:43:42.521Z,88.20
2022-11-25T20:46:19.788Z,88.20
2022-11-25T20:48:49.665Z,88.10
2022-11-25T20:51:20.070Z,88.20
2022-11-25T20:54:08.965Z,88.00
2022-11-25T20:56:36.400Z,88.00
2022-11-25T20:59:23.114Z,88.10
2022-11-25T21:01:58.146Z,88.10
2022-11-25T21:04:25.503Z,88.10
2022-11-25T21:06:57.578Z,88.20
2022-11-25T21:09:32.931Z,88.10
2022-11-25T21:12:00.618Z,88.10
2022-11-25T21:14:30.725Z,88.00
2022-11-25T21:17:07.796Z,88.10
2022-11-25T21:19:35.737Z,88.10
2022-11-25T21:22:03.715Z,88.30
2022-11-25T21:24:42.294Z,88.30
2022-11-25T21:27:15.986Z,88.00
2022-11-25T21:29:44.559Z,88.20
2022-11-25T21:32:27.223Z,88.20
2022-11-25T21:34:56.209Z,88.50
2022-11-25T21:37:33.197Z,88.40
2022-11-25T21:40:04.137Z,88.50
2022-11-25T21:42:32.481Z,88.90
2022-11-25T21:45:00.010Z,88.90
2022-11-25T21:47:30.042Z,89.00
2022-11-25T21:49:58.492Z,88.80
2022-11-25T21:52:26.270Z,88.80
2022-11-25T21:55:01.848Z,88.80
2022-11-25T21:57:33.345Z,88.90
2022-11-25T22:00:01.132Z,89.00
2022-11-25T22:02:32.361Z,89.00
2022-11-25T22:05:11.388Z,88.90
2022-11-25T22:07:41.297Z,88.90
2022-11-25T22:10:09.655Z,88.70
2022-11-25T22:12:41.513Z,88.80
2022-11-25T22:15:25.605Z,88.80
2022-11-25T22:17:57.324Z,88.80
2022-11-25T22:20:29.606Z,89.00
2022-11-25T22:22:57.487Z,89.00
2022-11-25T22:25:27.708Z,88.90
2022-11-25T22:27:55.526Z,89.00
2022-11-25T22:30:24.239Z,88.90
2022-11-25T22:32:58.964Z,89.00
2022-11-25T22:35:29.908Z,88.80
2022-11-25T22:37:57.686Z,88.70
2022-11-25T22:40:26.578Z,88.40
2022-11-25T22:42:57.102Z,88.40
2022-11-25T22:45:32.173Z,88.50
2022-11-25T22:48:06.041Z,88.40
2022-11-25T22:50:34.440Z,88.60
2022-11-25T22:53:02.407Z,88.50
2022-11-25T22:55:33.464Z,88.50
2022-11-25T22:58:02.372Z,88.40
2022-11-25T23:00:46.078Z,88.40
2022-11-25T23:03:16.713Z,88.20
2022-11-25T23:05:44.332Z,87.90
2022-11-25T23:08:23.407Z,87.80
2022-11-25T23:10:52.511Z,87.60
2022-11-25T23:13:22.800Z,87.80
2022-11-25T23:15:53.681Z,87.80
2022-11-25T23:18:37.765Z,88.10
2022-11-25T23:21:22.091Z,88.30
2022-11-25T23:23:50.395Z,88.50
2022-11-25T23:26:18.394Z,88.30
2022-11-25T23:28:45.683Z,88.20
2022-11-25T23:31:15.024Z,88.00
2022-11-25T23:33:49.019Z,88.30
2022-11-25T23:36:31.181Z,88.80
2022-11-25T23:39:02.436Z,88.90
2022-11-25T23:41:34.786Z,88.90
2022-11-25T23:44:11.729Z,89.20
2022-11-25T23:47:14.096Z,89.00
2022-11-25T23:49:47.115Z,88.80
2022-11-25T23:52:18.699Z,88.90
2022-11-25T23:54:47.762Z,88.90
2022-11-25T23:57:19.997Z,88.70
2022-11-25T23:59:48.645Z,88.70
